createdAt,value
2023-05-13T00:03:28.257Z,47.75
2023-05-13T00:13:32.202Z,48.15
2023-05-13T00:23:35.676Z,48.19
2023-05-13T00:33:42.786Z,48.52
2023-05-13T00:43:46.422Z,48.78
2023-05-13T00:53:50.650Z,48.93
2023-05-13T01:04:01.429Z,49.23
2023-05-13T01:14:18.549Z,49.64
2023-05-13T01:24:22.492Z,49.85
2023-05-13T01:34:27.742Z,50.30
2023-05-13T01:44:31.681Z,50.55
2023-05-13T01:54:35.577Z,51.17
2023-05-13T02:04:39.171Z,51.74
2023-05-13T02:14:43.276Z,52.25
2023-05-13T02:24:47.453Z,52.51
2023-05-13T02:34:51.435Z,52.89
2023-05-13T02:44:55.258Z,53.22
2023-05-13T02:54:58.877Z,53.22
2023-05-13T03:05:03.364Z,53.38
2023-05-13T03:15:08.807Z,53.59
2023-05-13T03:25:16.150Z,53.75
2023-05-13T03:35:19.791Z,53.89
2023-05-13T03:55:26.281Z,52.48
2023-05-13T04:05:29.599Z,51.51
2023-05-13T04:15:36.708Z,50.55
2023-05-13T04:25:41.876Z,49.46
2023-05-13T04:35:45.810Z,49.24
2023-05-13T04:45:49.737Z,48.79
2023-05-13T04:55:56.765Z,49.66
2023-05-13T05:06:03.759Z,50.41
2023-05-13T05:16:08.333Z,51.06
2023-05-13T05:26:12.559Z,51.35
2023-05-13T05:36:17.202Z,51.93
2023-05-13T05:46:20.964Z,51.83
2023-05-13T05:56:24.786Z,50.43
2023-05-13T06:06:29.018Z,49.13
2023-05-13T06:16:32.774Z,47.98
2023-05-13T06:26:35.778Z,47.39
2023-05-13T06:36:39.743Z,46.99
2023-05-13T06:46:43.383Z,46.43
2023-05-13T06:56:47.054Z,45.23
2023-05-13T07:06:50.316Z,44.04
2023-05-13T07:16:54.256Z,43.74
2023-05-13T07:26:58.326Z,43.36
2023-05-13T07:37:03.415Z,42.16
2023-05-13T07:47:10.888Z,41.48
2023-05-13T07:57:14.647Z,41.15
2023-05-13T08:07:18.053Z,40.44
2023-05-13T08:17:22.185Z,40.22
2023-05-13T08:27:29.993Z,39.74
2023-05-13T08:37:33.660Z,38.28
2023-05-13T08:47:40.200Z,37.00
2023-05-13T08:57:43.412Z,36.17
2023-05-13T09:07:47.074Z,34.89
2023-05-13T09:17:52.737Z,35.03
2023-05-13T09:27:58.450Z,34.84
2023-05-13T09:38:01.951Z,34.41
2023-05-13T09:48:08.066Z,33.67
2023-05-13T09:58:11.330Z,32.95
2023-05-13T10:08:15.663Z,33.07
2023-05-13T10:18:20.676Z,32.77
2023-05-13T10:28:25.962Z,33.24
2023-05-13T10:38:53.590Z,33.63
2023-05-13T10:48:59.774Z,31.79
2023-05-13T10:59:05.889Z,31.86
2023-05-13T11:09:13.602Z,31.59
2023-05-13T11:19:21.022Z,31.36
2023-05-13T11:29:30.096Z,31.47
2023-05-13T11:39:34.813Z,31.13
2023-05-13T11:49:38.222Z,32.01
2023-05-13T11:59:48.180Z,32.18
2023-05-13T12:09:53.471Z,32.33
2023-05-13T12:20:10.169Z,32.36
2023-05-13T12:30:14.812Z,31.88
2023-05-13T12:40:17.578Z,32.24
2023-05-13T12:50:25.784Z,31.46
2023-05-13T13:00:29.334Z,31.93
2023-05-13T13:10:33.024Z,31.67
2023-05-13T13:20:37.268Z,32.33
2023-05-13T13:30:41.081Z,32.75
2023-05-13T13:40:44.673Z,32.98
2023-05-13T13:50:49.383Z,33.34
2023-05-13T14:00:54.443Z,33.12
2023-05-13T14:10:58.305Z,32.47
2023-05-13T14:21:05.494Z,32.45
2023-05-13T14:31:12.874Z,32.71
2023-05-13T14:41:19.443Z,32.34
2023-05-13T14:51:23.243Z,31.78
2023-05-13T15:01:31.298Z,32.58
2023-05-13T15:11:39.956Z,32.96
2023-05-13T15:21:43.616Z,32.59
2023-05-13T15:31:50.322Z,32.77
2023-05-13T15:41:53.984Z,33.39
2023-05-13T15:51:58.121Z,33.73
2023-05-13T16:02:01.928Z,33.64
2023-05-13T16:12:04.590Z,33.96
2023-05-13T16:22:26.331Z,34.27
2023-05-13T16:32:30.582Z,34.22
2023-05-13T16:42:37.836Z,34.62
2023-05-13T16:52:41.737Z,34.78
2023-05-13T17:02:45.585Z,34.82
2023-05-13T17:12:49.632Z,35.23
2023-05-13T17:22:53.207Z,35.65
2023-05-13T17:32:56.793Z,36.30
2023-05-13T17:43:02.527Z,36.69
2023-05-13T17:53:06.511Z,37.27
2023-05-13T18:03:10.143Z,37.51
2023-05-13T18:13:17.834Z,37.91
2023-05-13T18:23:21.368Z,38.50
2023-05-13T18:33:25.038Z,39.00
2023-05-13T18:43:28.500Z,39.68
2023-05-13T18:53:32.192Z,40.52
2023-05-13T19:03:36.603Z,41.42
2023-05-13T19:23:50.531Z,43.36
2023-05-13T19:33:54.514Z,44.11
2023-05-13T19:43:58.470Z,44.80
2023-05-13T19:54:02.482Z,45.47
2023-05-13T20:04:09.474Z,46.50
2023-05-13T20:14:22.463Z,47.30
2023-05-13T20:24:25.991Z,48.14
2023-05-13T20:34:30.195Z,49.12
2023-05-13T20:44:34.065Z,50.08
2023-05-13T20:54:38.033Z,50.98
2023-05-13T21:04:41.603Z,51.73
2023-05-13T21:14:45.559Z,52.27
2023-05-13T21:24:49.993Z,52.91
2023-05-13T21:34:56.821Z,53.77
2023-05-13T21:45:04.493Z,54.54
2023-05-13T21:55:09.640Z,55.10
2023-05-13T22:05:12.761Z,55.52
2023-05-13T22:15:20.476Z,56.15
2023-05-13T22:25:33.533Z,56.74
2023-05-13T22:35:39.272Z,57.34
2023-05-13T22:45:43.094Z,57.63
2023-05-13T22:55:46.699Z,58.18
2023-05-13T23:05:51.028Z,58.67
2023-05-13T23:15:54.820Z,58.86
2023-05-13T23:25:58.533Z,59.26
2023-05-13T23:36:02.138Z,59.76
2023-05-13T23:46:05.932Z,60.36
2023-05-13T23:56:12.093Z,60.88
